Huvudsida
METAR-TAF:

METAR-TAF

Flygplatser :

Dibrugarh Airport

Dibrugarh, Indien

latitud: 27-29N, longitud: 095-01E, höjd: 110 m

Aktuellt väderrapport

Denna rapport gjordes för 1 timme och 23 minuter sedan, klockan 11:00 UTC
Vind 2 kt varierande vindriktning
Temperatur 29°C
Fuktighet 84%
Tryck 1002 hPa
Sikt: 5000 m
Spridda moln på en höjd av 2000 ft
Brutna moln på en höjd av 10000 ft
fuktdis,

METAR: VEMN 161100Z VRB02KT 5000 BR SCT020 BKN100 29/26 Q1002 NOSIG

Tid: 17:53 (12:23 UTC)

Väderprognos

Denna rapport gjordes för 1 timme och 23 minuter sedan, klockan 11:00 UTC
Prognos gäller från 16 kl. 12 UTC till 16 kl. 21 UTC
Vind 5 kt från ost
Sikt: 5000 m
Spridda moln på en höjd av 2000 ft
Brutna moln på en höjd av 10000 ft
fuktdis
Temporärt
från 16 kl. 17 UTC till 16 kl. 21 UTC
Sikt: 3000 m
Få moln på en höjd av 2500 ft, Cumulonimbus.
Mulet på en höjd av 9000 ft
åska, lätt regn,

TAF: VEMN 161100Z 1612/1621 09005KT 5000 BR SCT020 BKN100 TEMPO 1617/1621 3000 -TSRA FEW025CB OVC090

Aktuella väderrapporter och prognoser från 4000 flygplatser (METAR- och TAF-rapporter).

De tillgängliga stationerna syns som gula och röda prickar på kartan.

För musen över prickarna för att se namnen på stationerna.

Klicka sedan för att få väderrapporter och prognoser.

För att ändra kartan: Klicka på de gröna knapparna med ett svart kors på för att zooma in; den gröna knappen med ett streck på för att zooma ut; eller på de gröna pilarna för angränsande kartor.


METAR-TAF: